»·PEaware :: DAL40 KLAX-KJFK

DAL40 :: KLAX-KJFK

FLIGHT INFORMATION

Flight Status: Arrived
Operator:
Delta Air Lines
More flights by this operator :: More flights under this callsign
Pilot: Manny R. (10936)
Aircraft: BOEING 767-300
(B763)
More flights by this aircraft type
Origin: KLAX Los Angeles Intl
United States
Destination: KJFK Kennedy Intl
United States
More flights between these airports :: More routes between these airports
Route: +OSHNN8 BEALE BAWER LARVE EKR BFF/N0471F370 ONL FOD DBQ KG75M DAFLU J70 LVZ LENDY6
File this flight plan on PilotEdge
Remarks: RMK / SIMBRIEF
Altitude:
(Current/Filed)
35,000ft
Speed:
(Current/Filed)
473kts
Departed: 14-Apr-20 01:06 PM
Arrived: 14-Apr-20 05:42 PM
Distance/Time
Traveled:
2145nm/4:36
Distance/Time
To Go:
Arrived

Flight Plot

Page will automatically refresh every two minutes.

Flight plan parsing failed; only flown route is shown


Map Options




Map Legend


Flown Route
Filed Route
Departure Airport
Arrival Airport
Navaid (VOR, NDB)
Fix

Horizontal Profiles

Position Reports

Time Latitude Longitude Heading Altitude Ground
Speed
14-Apr-20 12:41 33.947109 -118.403411 229 124ft 0kts
14-Apr-20 12:42 33.947109 -118.403411 229 124ft 0kts
14-Apr-20 12:43 33.947109 -118.403411 229 124ft 0kts
14-Apr-20 12:44 33.947109 -118.403411 229 124ft 0kts
14-Apr-20 12:45 33.947109 -118.403411 229 124ft 0kts
14-Apr-20 12:46 33.947109 -118.403411 229 124ft 0kts
14-Apr-20 12:47 33.947109 -118.403411 229 124ft 0kts
14-Apr-20 12:48 33.947109 -118.403411 229 124ft 0kts
14-Apr-20 12:49 33.947109 -118.403411 229 124ft 0kts
14-Apr-20 12:50 33.947109 -118.403411 229 124ft 0kts
14-Apr-20 12:51 33.947109 -118.403411 229 124ft 0kts
14-Apr-20 12:52 33.947109 -118.403411 229 124ft 0kts
14-Apr-20 12:53 33.947109 -118.403411 229 124ft 0kts
14-Apr-20 12:54 33.947114 -118.403405 229 124ft 1kts
14-Apr-20 12:55 33.947424 -118.402853 275 124ft 2kts
14-Apr-20 12:56 33.947165 -118.402534 354 124ft 0kts
14-Apr-20 12:57 33.947165 -118.402534 354 124ft 0kts
14-Apr-20 12:58 33.947165 -118.402534 354 124ft 0kts
14-Apr-20 12:59 33.947355 -118.402560 352 124ft 8kts
14-Apr-20 13:00 33.949167 -118.401847 47 122ft 0kts
14-Apr-20 13:01 33.949167 -118.401847 47 122ft 0kts
14-Apr-20 13:02 33.949167 -118.401847 47 122ft 0kts
14-Apr-20 13:03 33.949167 -118.401847 47 122ft 0kts
14-Apr-20 13:04 33.949605 -118.401733 356 121ft 7kts
14-Apr-20 13:05 33.949170 -118.411491 263 129ft 92kts
14-Apr-20 13:07 33.943559 -118.461871 262 1096ft 169kts
14-Apr-20 13:08 33.940873 -118.520513 264 2278ft 191kts
14-Apr-20 13:09 33.935226 -118.597767 263 2787ft 250kts
14-Apr-20 13:10 33.885348 -118.639596 179 4263ft 256kts
14-Apr-20 13:11 33.816146 -118.616827 146 6673ft 270kts
14-Apr-20 13:12 33.752679 -118.565797 145 9364ft 278kts
14-Apr-20 13:13 33.688393 -118.499306 116 10393ft 355kts
14-Apr-20 13:14 33.655912 -118.381981 108 13249ft 381kts
14-Apr-20 13:15 33.644626 -118.254538 88 16042ft 396kts
14-Apr-20 13:16 33.682139 -118.130828 46 18532ft 407kts
14-Apr-20 13:17 33.777668 -118.056260 30 21143ft 419kts
14-Apr-20 13:18 33.875002 -117.972710 33 23557ft 437kts
14-Apr-20 13:19 33.974519 -117.882447 33 25794ft 454kts
14-Apr-20 13:20 34.076412 -117.788690 36 27876ft 471kts
14-Apr-20 13:21 34.164822 -117.665508 46 29823ft 493kts
14-Apr-20 13:22 34.251374 -117.536901 46 32110ft 494kts
14-Apr-20 13:23 34.305987 -117.455446 46 33327ft 493kts
14-Apr-20 13:24 34.361437 -117.372554 46 34478ft 491kts
14-Apr-20 13:24 34.431557 -117.267440 46 34993ft 476kts
14-Apr-20 13:25 34.516545 -117.139660 46 35036ft 490kts
14-Apr-20 13:27 34.618259 -116.990296 45 35082ft 495kts
14-Apr-20 13:27 34.692231 -116.882307 45 35085ft 501kts
14-Apr-20 13:28 34.781683 -116.751240 45 35085ft 502kts
14-Apr-20 13:29 34.871810 -116.620740 41 35082ft 499kts
14-Apr-20 13:31 34.979774 -116.476796 42 35078ft 477kts
14-Apr-20 13:31 35.052797 -116.378877 43 35071ft 467kts
14-Apr-20 13:32 35.140034 -116.261483 43 35073ft 469kts
14-Apr-20 13:33 35.228004 -116.142700 43 35074ft 468kts
14-Apr-20 13:34 35.315886 -116.023603 43 35073ft 468kts
14-Apr-20 13:35 35.403817 -115.904038 43 35072ft 469kts
14-Apr-20 13:36 35.491237 -115.784732 43 35095ft 469kts
14-Apr-20 13:37 35.578825 -115.664781 43 35108ft 469kts
14-Apr-20 13:38 35.666069 -115.544880 43 35111ft 469kts
14-Apr-20 13:39 35.751861 -115.426459 43 35088ft 442kts
14-Apr-20 13:40 35.833275 -115.313860 43 35110ft 450kts
14-Apr-20 13:41 35.918741 -115.195162 44 35106ft 471kts
14-Apr-20 13:42 36.005853 -115.073689 44 35095ft 474kts
14-Apr-20 13:43 36.093655 -114.950839 44 35079ft 478kts
14-Apr-20 13:44 36.181381 -114.826933 47 35082ft 480kts
14-Apr-20 13:45 36.260880 -114.693381 49 35085ft 481kts
14-Apr-20 13:46 36.339561 -114.559761 49 35084ft 482kts
14-Apr-20 13:47 36.418357 -114.425391 49 35086ft 482kts
14-Apr-20 13:48 36.497199 -114.290412 49 35081ft 482kts
14-Apr-20 13:49 36.575946 -114.155055 50 35093ft 482kts
14-Apr-20 13:50 36.654694 -114.019147 49 35100ft 482kts
14-Apr-20 13:51 36.733103 -113.883286 50 35098ft 481kts
14-Apr-20 13:52 36.811314 -113.747204 50 35095ft 481kts
14-Apr-20 13:53 36.889313 -113.610972 50 35099ft 482kts
14-Apr-20 13:54 36.967292 -113.474202 49 35104ft 482kts
14-Apr-20 13:55 37.044166 -113.338784 49 35098ft 471kts
14-Apr-20 13:56 37.118982 -113.206534 49 35105ft 459kts
14-Apr-20 13:57 37.192633 -113.075845 49 35104ft 459kts
14-Apr-20 13:58 37.266553 -112.944177 49 35104ft 465kts
14-Apr-20 13:59 37.341411 -112.810257 50 35097ft 473kts
14-Apr-20 14:00 37.417017 -112.674419 50 35099ft 473kts
14-Apr-20 14:01 37.492470 -112.538339 50 35096ft 473kts
14-Apr-20 14:02 37.568054 -112.401463 50 35085ft 473kts
14-Apr-20 14:03 37.643865 -112.264899 47 35079ft 471kts
14-Apr-20 14:04 37.725388 -112.135108 47 35079ft 471kts
14-Apr-20 14:05 37.806171 -112.005406 47 35079ft 471kts
14-Apr-20 14:06 37.886976 -111.875121 47 35078ft 471kts
14-Apr-20 14:07 37.967714 -111.744418 47 35082ft 471kts
14-Apr-20 14:08 38.048385 -111.613298 47 35081ft 471kts
14-Apr-20 14:09 38.128807 -111.482068 47 35088ft 472kts
14-Apr-20 14:10 38.208827 -111.350969 47 35089ft 471kts
14-Apr-20 14:11 38.289055 -111.218986 48 35083ft 471kts
14-Apr-20 14:12 38.368854 -111.087182 47 35080ft 472kts
14-Apr-20 14:13 38.449840 -110.952886 47 35062ft 484kts
14-Apr-20 14:14 38.532497 -110.815218 47 35048ft 489kts
14-Apr-20 14:15 38.614952 -110.677293 47 35038ft 490kts
14-Apr-20 14:16 38.697865 -110.538019 47 35046ft 490kts
14-Apr-20 14:17 38.780576 -110.398495 47 35047ft 491kts
14-Apr-20 14:18 38.863396 -110.258174 48 35039ft 491kts
14-Apr-20 14:19 38.945377 -110.118628 48 35040ft 483kts
14-Apr-20 14:20 39.025212 -109.982201 47 35041ft 474kts
14-Apr-20 14:21 39.099949 -109.843460 51 35041ft 475kts
14-Apr-20 14:22 39.173565 -109.701400 50 35052ft 474kts
14-Apr-20 14:23 39.246655 -109.559812 50 35049ft 474kts
14-Apr-20 14:24 39.319457 -109.418166 50 35051ft 474kts
14-Apr-20 14:25 39.392373 -109.275664 51 35042ft 475kts
14-Apr-20 14:26 39.464953 -109.133183 51 35038ft 478kts
14-Apr-20 14:27 39.538298 -108.988550 51 35036ft 484kts
14-Apr-20 14:28 39.612375 -108.841774 51 35036ft 486kts
14-Apr-20 14:29 39.685302 -108.696627 51 35037ft 486kts
14-Apr-20 14:30 39.758669 -108.549936 51 35023ft 486kts
14-Apr-20 14:31 39.832317 -108.401981 51 34988ft 486kts
14-Apr-20 14:32 39.905444 -108.254403 52 34977ft 486kts
14-Apr-20 14:33 39.977921 -108.107438 52 34977ft 486kts
14-Apr-20 14:34 40.051339 -107.957863 52 34979ft 487kts
14-Apr-20 14:35 40.120351 -107.805134 55 34987ft 489kts
14-Apr-20 14:36 40.187971 -107.651159 54 34983ft 488kts
14-Apr-20 14:37 40.255319 -107.497094 54 34978ft 488kts
14-Apr-20 14:38 40.322478 -107.342691 55 34965ft 488kts
14-Apr-20 14:39 40.389739 -107.187252 55 34950ft 488kts
14-Apr-20 14:40 40.456862 -107.031367 55 34940ft 489kts
14-Apr-20 14:41 40.524079 -106.874465 55 34940ft 495kts
14-Apr-20 14:42 40.592075 -106.714871 55 34937ft 498kts
14-Apr-20 14:43 40.659747 -106.555232 55 34944ft 499kts
14-Apr-20 14:44 40.727566 -106.394386 55 34938ft 499kts
14-Apr-20 14:45 40.794607 -106.234524 56 34915ft 497kts
14-Apr-20 14:46 40.861791 -106.073482 56 34864ft 497kts
14-Apr-20 14:47 40.928233 -105.913377 56 34859ft 499kts
14-Apr-20 14:48 40.994368 -105.753099 56 34861ft 496kts
14-Apr-20 14:49 41.059965 -105.593286 55 34861ft 487kts
14-Apr-20 14:50 41.124303 -105.435732 54 34871ft 478kts
14-Apr-20 14:51 41.187577 -105.280023 55 34871ft 478kts
14-Apr-20 14:52 41.250998 -105.123062 55 34889ft 478kts
14-Apr-20 14:53 41.313998 -104.966339 55 34877ft 483kts
14-Apr-20 14:54 41.377248 -104.808118 55 34864ft 486kts
14-Apr-20 14:55 41.440538 -104.648952 55 34867ft 486kts
14-Apr-20 14:56 41.503360 -104.490104 55 34864ft 486kts
14-Apr-20 14:57 41.566175 -104.330415 56 34847ft 486kts
14-Apr-20 14:58 41.628794 -104.170342 56 34841ft 486kts
14-Apr-20 14:59 41.691221 -104.009887 56 34847ft 487kts
14-Apr-20 15:00 41.753390 -103.849192 56 34851ft 485kts
14-Apr-20 15:01 41.815130 -103.688746 56 34852ft 486kts
14-Apr-20 15:02 41.876799 -103.527453 57 34853ft 486kts
14-Apr-20 15:03 41.912512 -103.349512 73 34853ft 500kts
14-Apr-20 15:04 41.938655 -103.165863 74 34842ft 501kts
14-Apr-20 15:05 41.964543 -102.979139 74 34826ft 510kts
14-Apr-20 15:06 41.990355 -102.790163 75 35973ft 510kts
14-Apr-20 15:07 42.015772 -102.601873 74 36825ft 513kts
14-Apr-20 15:08 42.040840 -102.413615 74 36826ft 508kts
14-Apr-20 15:09 42.065586 -102.225456 75 36820ft 509kts
14-Apr-20 15:10 42.090019 -102.037089 75 36812ft 509kts
14-Apr-20 15:11 42.114142 -101.848644 75 36820ft 509kts
14-Apr-20 15:12 42.137991 -101.659764 75 36826ft 509kts
14-Apr-20 15:13 42.161472 -101.471247 75 36846ft 510kts
14-Apr-20 15:14 42.184709 -101.282054 76 36854ft 510kts
14-Apr-20 15:16 42.207630 -101.092648 76 36844ft 509kts
14-Apr-20 15:17 42.230255 -100.903305 76 36849ft 516kts
14-Apr-20 15:18 42.252939 -100.710277 77 36846ft 520kts
14-Apr-20 15:19 42.275409 -100.516210 77 36850ft 519kts
14-Apr-20 15:20 42.297533 -100.322287 78 36851ft 520kts
14-Apr-20 15:21 42.319244 -100.128916 78 36866ft 520kts
14-Apr-20 15:22 42.340711 -99.934708 78 36872ft 521kts
14-Apr-20 15:23 42.361829 -99.740636 78 36876ft 520kts
14-Apr-20 15:24 42.382704 -99.545496 78 36876ft 520kts
14-Apr-20 15:25 42.403104 -99.351742 78 36878ft 521kts
14-Apr-20 15:26 42.423209 -99.157483 79 36892ft 521kts
14-Apr-20 15:27 42.443056 -98.962550 79 36899ft 528kts
14-Apr-20 15:28 42.462831 -98.764658 79 36899ft 532kts
14-Apr-20 15:29 42.476627 -98.565100 83 36906ft 533kts
14-Apr-20 15:30 42.486535 -98.365044 83 36905ft 533kts
14-Apr-20 15:31 42.496072 -98.164239 84 36898ft 533kts
14-Apr-20 15:32 42.505246 -97.963746 84 36911ft 533kts
14-Apr-20 15:32 42.512610 -97.797093 84 36923ft 533kts
14-Apr-20 15:34 42.522529 -97.563087 84 36926ft 533kts
14-Apr-20 15:35 42.530638 -97.363003 84 36930ft 533kts
14-Apr-20 15:35 42.537140 -97.195757 85 36914ft 533kts
14-Apr-20 15:36 42.544679 -96.993862 86 36918ft 537kts
14-Apr-20 15:38 42.553000 -96.758050 86 36941ft 538kts
14-Apr-20 15:38 42.558679 -96.589106 86 36952ft 538kts
14-Apr-20 15:39 42.565137 -96.387241 86 36954ft 538kts
14-Apr-20 15:41 42.572245 -96.150652 87 36940ft 538kts
14-Apr-20 15:41 42.577039 -95.981343 87 36935ft 538kts
14-Apr-20 15:42 42.582461 -95.778210 87 36954ft 538kts
14-Apr-20 15:43 42.587493 -95.575978 87 36957ft 538kts
14-Apr-20 15:44 42.592184 -95.373182 87 36941ft 538kts
14-Apr-20 15:45 42.596524 -95.170163 87 36906ft 537kts
14-Apr-20 15:46 42.600500 -94.967864 87 36909ft 539kts
14-Apr-20 15:47 42.604149 -94.763458 88 36915ft 542kts
14-Apr-20 15:48 42.607422 -94.558912 88 36979ft 542kts
14-Apr-20 15:49 42.610338 -94.354984 88 36991ft 543kts
14-Apr-20 15:50 42.604806 -94.150708 94 36979ft 542kts
14-Apr-20 15:51 42.595698 -93.946239 94 36972ft 542kts
14-Apr-20 15:52 42.586195 -93.742502 94 36966ft 542kts
14-Apr-20 15:53 42.576309 -93.538427 94 36980ft 542kts
14-Apr-20 15:54 42.566087 -93.334943 95 36984ft 542kts
14-Apr-20 15:55 42.555470 -93.130808 95 36981ft 542kts
14-Apr-20 15:56 42.544522 -92.927281 95 36972ft 545kts
14-Apr-20 15:57 42.533099 -92.721975 95 36973ft 546kts
14-Apr-20 15:58 42.521332 -92.517086 95 36979ft 546kts
14-Apr-20 15:59 42.509213 -92.312376 96 36967ft 545kts
14-Apr-20 16:00 42.496684 -92.107135 96 36971ft 546kts
14-Apr-20 16:01 42.483875 -91.903266 96 36974ft 546kts
14-Apr-20 16:02 42.470626 -91.698261 96 36976ft 545kts
14-Apr-20 16:03 42.457061 -91.494060 96 36980ft 545kts
14-Apr-20 16:04 42.443080 -91.289137 97 37015ft 545kts
14-Apr-20 16:05 42.428670 -91.083417 97 37154ft 546kts
14-Apr-20 16:06 42.413969 -90.878997 98 37148ft 548kts
14-Apr-20 16:07 42.402813 -90.673894 87 37154ft 550kts
14-Apr-20 16:08 42.412863 -90.467278 87 37154ft 550kts
14-Apr-20 16:09 42.422211 -90.260664 87 37141ft 550kts
14-Apr-20 16:10 42.431192 -90.053605 87 37156ft 550kts
14-Apr-20 16:11 42.439825 -89.845873 88 37162ft 550kts
14-Apr-20 16:12 42.448074 -89.638355 87 37162ft 550kts
14-Apr-20 16:13 42.455943 -89.431065 87 37163ft 550kts
14-Apr-20 16:14 42.463434 -89.223722 88 37149ft 549kts
14-Apr-20 16:15 42.470505 -89.017548 88 37151ft 550kts
14-Apr-20 16:16 42.477321 -88.808069 89 37133ft 557kts
14-Apr-20 16:17 42.483765 -88.597881 89 37135ft 557kts
14-Apr-20 16:18 42.489851 -88.386795 89 37137ft 557kts
14-Apr-20 16:19 42.495519 -88.176859 89 37124ft 557kts
14-Apr-20 16:20 42.500176 -87.965747 92 37128ft 556kts
14-Apr-20 16:21 42.499800 -87.755285 92 37132ft 556kts
14-Apr-20 16:22 42.499195 -87.544651 92 37141ft 556kts
14-Apr-20 16:23 42.498221 -87.334779 93 37138ft 556kts
14-Apr-20 16:24 42.496849 -87.125048 93 37131ft 556kts
14-Apr-20 16:25 42.495107 -86.914552 93 37158ft 558kts
14-Apr-20 16:26 42.492979 -86.704620 93 37167ft 558kts
14-Apr-20 16:27 42.490458 -86.494508 93 37166ft 558kts
14-Apr-20 16:28 42.487571 -86.284795 94 37146ft 557kts
14-Apr-20 16:29 42.484279 -86.074725 94 37148ft 557kts
14-Apr-20 16:30 42.480618 -85.865094 94 37154ft 557kts
14-Apr-20 16:31 42.476574 -85.654966 93 37159ft 557kts
14-Apr-20 16:32 42.472133 -85.444290 94 37161ft 557kts
14-Apr-20 16:33 42.467330 -85.234927 95 37142ft 557kts
14-Apr-20 16:34 42.462127 -85.024458 95 37142ft 562kts
14-Apr-20 16:35 42.456465 -84.811925 96 37134ft 563kts
14-Apr-20 16:36 42.450438 -84.600189 96 37140ft 563kts
14-Apr-20 16:37 42.444023 -84.388735 96 37153ft 563kts
14-Apr-20 16:38 42.437223 -84.177193 97 37139ft 562kts
14-Apr-20 16:39 42.430042 -83.965826 97 37119ft 562kts
14-Apr-20 16:40 42.422461 -83.754485 97 37130ft 562kts
14-Apr-20 16:41 42.414511 -83.543350 97 37132ft 562kts
14-Apr-20 16:42 42.406196 -83.332968 98 37137ft 561kts
14-Apr-20 16:43 42.397440 -83.121328 98 37129ft 561kts
14-Apr-20 16:44 42.388346 -82.910852 98 37129ft 566kts
14-Apr-20 16:45 42.378778 -82.697307 99 37127ft 568kts
14-Apr-20 16:46 42.370493 -82.482147 98 37121ft 571kts
14-Apr-20 16:47 42.361824 -82.267498 98 37107ft 570kts
14-Apr-20 16:48 42.352711 -82.052550 99 37117ft 571kts
14-Apr-20 16:49 42.343469 -81.843182 98 37118ft 570kts
14-Apr-20 16:50 42.333619 -81.629102 99 37123ft 570kts
14-Apr-20 16:51 42.323394 -81.414601 99 37120ft 570kts
14-Apr-20 16:52 42.312795 -81.199988 99 37106ft 568kts
14-Apr-20 16:53 42.301848 -80.986830 100 37122ft 572kts
14-Apr-20 16:54 42.290433 -80.771948 100 37135ft 573kts
14-Apr-20 16:55 42.278465 -80.555833 100 37137ft 574kts
14-Apr-20 16:56 42.266208 -80.341900 101 37137ft 574kts
14-Apr-20 16:57 42.253464 -80.126562 101 37123ft 573kts
14-Apr-20 16:58 42.240414 -79.912557 101 37127ft 574kts
14-Apr-20 16:59 42.226970 -79.698974 101 37096ft 573kts
14-Apr-20 17:00 42.213083 -79.484745 101 37090ft 573kts
14-Apr-20 17:01 42.198785 -79.270293 101 37076ft 574kts
14-Apr-20 17:02 42.172399 -79.059775 116 37091ft 562kts
14-Apr-20 17:03 42.123322 -78.859882 117 37076ft 561kts
14-Apr-20 17:04 42.073014 -78.660280 117 37059ft 562kts
14-Apr-20 17:05 42.022324 -78.460902 118 37059ft 561kts
14-Apr-20 17:06 41.971624 -78.263059 118 37035ft 558kts
14-Apr-20 17:07 41.920055 -78.063722 118 37035ft 560kts
14-Apr-20 17:08 41.868564 -77.866180 118 37053ft 560kts
14-Apr-20 17:09 41.816321 -77.667429 118 37057ft 561kts
14-Apr-20 17:10 41.764158 -77.470606 119 37064ft 559kts
14-Apr-20 17:11 41.711112 -77.272043 119 37044ft 558kts
14-Apr-20 17:12 41.657742 -77.073846 119 37061ft 558kts
14-Apr-20 17:13 41.599966 -76.861198 119 37084ft 562kts
14-Apr-20 17:14 41.540483 -76.644063 119 37094ft 563kts
14-Apr-20 17:15 41.480386 -76.426591 119 37089ft 564kts
14-Apr-20 17:16 41.423567 -76.222708 119 37073ft 565kts
14-Apr-20 17:17 41.367316 -76.022340 120 37056ft 562kts
14-Apr-20 17:18 41.307114 -75.809853 119 37048ft 565kts
14-Apr-20 17:19 41.242856 -75.599281 123 37053ft 558kts
14-Apr-20 17:20 41.173898 -75.393639 123 37053ft 556kts
14-Apr-20 17:21 41.109494 -75.202578 125 37026ft 535kts
14-Apr-20 17:22 41.046110 -75.016402 123 37047ft 563kts
14-Apr-20 17:23 40.990379 -74.813534 103 37043ft 582kts
14-Apr-20 17:24 40.966642 -74.599516 102 35945ft 576kts
14-Apr-20 17:25 40.942333 -74.379464 103 32933ft 583kts
14-Apr-20 17:26 40.895121 -74.177854 129 29886ft 553kts
14-Apr-20 17:27 40.801724 -74.030791 160 26886ft 489kts
14-Apr-20 17:29 40.695888 -73.904533 140 23807ft 510kts
14-Apr-20 17:30 40.624593 -73.740277 112 20804ft 531kts
14-Apr-20 17:31 40.629455 -73.554923 67 17820ft 454kts
14-Apr-20 17:32 40.701224 -73.443473 10 14846ft 361kts
14-Apr-20 17:33 40.779802 -73.463806 309 11921ft 257kts
14-Apr-20 17:34 40.819227 -73.526435 273 9941ft 179kts
14-Apr-20 17:35 40.811941 -73.575980 245 8282ft 137kts
14-Apr-20 17:36 40.799466 -73.626346 244 5317ft 155kts
14-Apr-20 17:37 40.766765 -73.659475 209 2772ft 136kts
14-Apr-20 17:38 40.736383 -73.683392 209 2100ft 125kts
14-Apr-20 17:39 40.706289 -73.707038 209 1441ft 126kts
14-Apr-20 17:40 40.675945 -73.730864 208 750ft 128kts
14-Apr-20 17:41 40.645261 -73.754836 208 55ft 128kts
14-Apr-20 17:42 40.626215 -73.769692 210 24ft 0kts
14-Apr-20 17:43 40.626215 -73.769692 210 24ft 0kts

Navigation Log

Ident Type
Flight plan parsing failed, navigation log unavailable